»·PEaware :: WAT169 KLAS-KSAN

WAT169 :: KLAS-KSAN

FLIGHT INFORMATION

Flight Status: Arrived
Operator:
Walker Air Transport
More flights by this operator :: More flights under this callsign
Pilot: Marty P. (27464)
Aircraft: BEECH AIRCRAFT SUPER KING AIR 350
(B350)
More flights by this aircraft type
Origin: KLAS McCarran Intl
United States
Destination: KSAN San Diego Intl-Lindbergh
United States
More flights between these airports :: More routes between these airports
Route: +LAS V538 GFS V514 CANNO V66 MZB
File this flight plan on PilotEdge
Remarks:
Altitude:
(Current/Filed)
28,000ft
Speed:
(Current/Filed)
220kts
Departed: 21-Oct-20 07:32 PM
Arrived: 21-Oct-20 08:25 PM
Distance/Time
Traveled:
225nm/0:52
Distance/Time
To Go:
Arrived

Flight Plot

Page will automatically refresh every two minutes.

Flight plan parsing failed; only flown route is shown


Map Options




Map Legend


Flown Route
Filed Route
Departure Airport
Arrival Airport
Navaid (VOR, NDB)
Fix

Horizontal Profiles

Position Reports

Time Latitude Longitude Heading Altitude Ground
Speed
21-Oct-20 19:13 36.082028 -115.171629 149 2170ft 0kts
21-Oct-20 19:14 36.082028 -115.171629 149 2170ft 0kts
21-Oct-20 19:15 36.082028 -115.171629 149 2170ft 0kts
21-Oct-20 19:16 36.082028 -115.171629 149 2170ft 0kts
21-Oct-20 19:17 36.082028 -115.171629 149 2170ft 0kts
21-Oct-20 19:18 36.082028 -115.171629 149 2170ft 0kts
21-Oct-20 19:19 36.082028 -115.171629 149 2170ft 0kts
21-Oct-20 19:20 36.081912 -115.171539 147 2170ft 5kts
21-Oct-20 19:21 36.081807 -115.170973 67 2169ft 8kts
21-Oct-20 19:22 36.085107 -115.167632 32 2154ft 24kts
21-Oct-20 19:23 36.088131 -115.165434 24 2139ft 15kts
21-Oct-20 19:24 36.093626 -115.162289 25 2115ft 27kts
21-Oct-20 19:25 36.099251 -115.159074 25 2094ft 15kts
21-Oct-20 19:26 36.099792 -115.157810 70 2089ft 0kts
21-Oct-20 19:27 36.099848 -115.157515 90 2088ft 0kts
21-Oct-20 19:28 36.099848 -115.157515 90 2088ft 0kts
21-Oct-20 19:29 36.099848 -115.157515 90 2088ft 0kts
21-Oct-20 19:30 36.097781 -115.157527 205 2092ft 38kts
21-Oct-20 19:31 36.069404 -115.171029 201 3393ft 128kts
21-Oct-20 19:32 36.033091 -115.188991 201 4933ft 152kts
21-Oct-20 19:33 35.987372 -115.201380 182 6464ft 178kts
21-Oct-20 19:34 35.937270 -115.201378 181 9338ft 180kts
21-Oct-20 19:35 35.885293 -115.200606 181 12210ft 197kts
21-Oct-20 19:36 35.830191 -115.200177 181 14936ft 203kts
21-Oct-20 19:37 35.774024 -115.199465 181 16962ft 206kts
21-Oct-20 19:38 35.715880 -115.198592 179 18743ft 210kts
21-Oct-20 19:39 35.657657 -115.192920 181 20848ft 212kts
21-Oct-20 19:40 35.598758 -115.191031 182 23007ft 218kts
21-Oct-20 19:41 35.539240 -115.189151 182 25828ft 216kts
21-Oct-20 19:42 35.466460 -115.186943 181 25916ft 301kts
21-Oct-20 19:43 35.376037 -115.184114 181 25896ft 345kts
21-Oct-20 19:44 35.278740 -115.181068 181 25848ft 353kts
21-Oct-20 19:45 35.180497 -115.178006 181 25799ft 355kts
21-Oct-20 19:46 35.085556 -115.196476 203 25800ft 348kts
21-Oct-20 19:47 34.994523 -115.236902 203 25808ft 349kts
21-Oct-20 19:48 34.903360 -115.277109 203 25808ft 349kts
21-Oct-20 19:50 34.812003 -115.317300 203 25805ft 349kts
21-Oct-20 19:51 34.720778 -115.357335 203 25804ft 349kts
21-Oct-20 19:52 34.629561 -115.397269 203 25847ft 348kts
21-Oct-20 19:53 34.538791 -115.436915 203 25911ft 347kts
21-Oct-20 19:54 34.447984 -115.476486 203 25915ft 348kts
21-Oct-20 19:55 34.357143 -115.515981 203 25915ft 348kts
21-Oct-20 19:56 34.280445 -115.580680 226 25913ft 339kts
21-Oct-20 19:57 34.211374 -115.658610 226 25918ft 340kts
21-Oct-20 19:58 34.141878 -115.736695 226 25919ft 340kts
21-Oct-20 19:59 34.067025 -115.806560 217 25916ft 343kts
21-Oct-20 20:00 33.987603 -115.870934 217 25840ft 345kts
21-Oct-20 20:01 33.907756 -115.935447 217 25764ft 346kts
21-Oct-20 20:02 33.827824 -115.999929 216 25311ft 353kts
21-Oct-20 20:03 33.746597 -116.065236 216 23817ft 346kts
21-Oct-20 20:04 33.668494 -116.127881 217 23761ft 337kts
21-Oct-20 20:05 33.591521 -116.192384 219 23594ft 343kts
21-Oct-20 20:05 33.525806 -116.250080 219 22365ft 354kts
21-Oct-20 20:07 33.433897 -116.330570 218 20367ft 352kts
21-Oct-20 20:07 33.368361 -116.387819 218 18331ft 345kts
21-Oct-20 20:09 33.280250 -116.464621 218 15285ft 331kts
21-Oct-20 20:09 33.220111 -116.516915 217 12685ft 312kts
21-Oct-20 20:10 33.153050 -116.575106 217 12072ft 285kts
21-Oct-20 20:11 33.077219 -116.592689 186 12100ft 287kts
21-Oct-20 20:12 32.996949 -116.600915 186 11127ft 286kts
21-Oct-20 20:13 32.920818 -116.608857 186 9594ft 266kts
21-Oct-20 20:14 32.862941 -116.658015 221 7865ft 259kts
21-Oct-20 20:15 32.808706 -116.715121 221 5926ft 263kts
21-Oct-20 20:16 32.759438 -116.773633 253 4959ft 227kts
21-Oct-20 20:17 32.721308 -116.833978 229 4994ft 240kts
21-Oct-20 20:18 32.682743 -116.898287 251 5019ft 241kts
21-Oct-20 20:19 32.681217 -116.973418 288 4999ft 241kts
21-Oct-20 20:20 32.698405 -117.045083 285 3915ft 219kts
21-Oct-20 20:21 32.712469 -117.102985 285 2534ft 150kts
21-Oct-20 20:22 32.722824 -117.145481 283 1104ft 127kts
21-Oct-20 20:23 32.732031 -117.183432 283 23ft 96kts
21-Oct-20 20:24 32.733207 -117.191663 155 22ft 0kts
21-Oct-20 20:25 32.733183 -117.191647 146 22ft 2kts
21-Oct-20 20:26 32.732751 -117.190687 129 22ft 10kts
21-Oct-20 20:27 32.731191 -117.190925 17 22ft 0kts
21-Oct-20 20:28 32.731191 -117.190925 17 22ft 0kts
21-Oct-20 20:29 32.731191 -117.190925 17 22ft 0kts
21-Oct-20 20:30 32.731191 -117.190925 17 22ft 0kts
21-Oct-20 20:31 32.731191 -117.190925 17 22ft 0kts
21-Oct-20 20:32 32.731191 -117.190925 17 22ft 0kts
21-Oct-20 20:33 32.731191 -117.190925 17 22ft 0kts
21-Oct-20 20:34 32.731191 -117.190925 17 22ft 0kts

Navigation Log

Ident Type
Flight plan parsing failed, navigation log unavailable